Aérodrome de Muret - Lherm

LFBR · Alto Garona, Occitanie, Francia

METAR pasados LFBR · Aérodrome de Muret - Lherm

A continuación puedes ver los METAR de los últimos días. Selecciona un año para ver los METAR más antiguos, desde el año 2007 en adelante.

25 de junio de 2024

Hora Código Tiempo Temp. Visibilidad Cielo nuboso Viento METAR/SPECI
16:00
V
30 °C 10 km+ - 120° 120° 5 kt METAR LFBF 251400Z AUTO 12005KT 030V180 CAVOK 30/15 Q1010
15:30
V
30 °C 10 km+ - Var Var 4 kt METAR LFBF 251330Z AUTO VRB04KT CAVOK 30/17 Q1010
15:00
V
30 °C 10 km+ - Var Var 3 kt METAR LFBF 251300Z AUTO VRB03KT CAVOK 30/15 Q1010
14:30
V
29 °C 10 km+ - 160° 160° 5 kt METAR LFBF 251230Z AUTO 16005KT 090V220 CAVOK 29/16 Q1010
14:00
V
29 °C 10 km+ - 100° 100° 4 kt METAR LFBF 251200Z AUTO 10004KT 030V180 CAVOK 29/16 Q1011
13:30
V
28 °C 10 km+ - Var Var 3 kt METAR LFBF 251130Z AUTO VRB03KT CAVOK 28/16 Q1011
13:00
V
28 °C 10 km+ - 100° 100° 6 kt METAR LFBF 251100Z AUTO 10006KT 060V150 CAVOK 28/17 Q1011
12:30
V
28 °C 10 km+ - Var Var 3 kt METAR LFBF 251030Z AUTO VRB03KT CAVOK 28/16 Q1011
12:00
V
27 °C 10 km+ - Var Var 3 kt METAR LFBF 251000Z AUTO VRB03KT CAVOK 27/16 Q1011
11:30
V
26 °C 10 km+ - Var Var 2 kt METAR LFBF 250930Z AUTO VRB02KT CAVOK 26/16 Q1011
11:00
V
25 °C 10 km+ - Var Var 2 kt METAR LFBF 250900Z AUTO VRB02KT CAVOK 25/16 Q1012
10:30
V
24 °C 10 km+ - Var Var 2 kt METAR LFBF 250830Z AUTO VRB02KT CAVOK 24/16 Q1012
10:00
V
23 °C 10 km+ - Var Var 2 kt METAR LFBF 250800Z AUTO VRB02KT CAVOK 23/16 Q1012
09:30
V
21 °C 10 km+ - Var Var 3 kt METAR LFBF 250730Z AUTO VRB03KT CAVOK 21/15 Q1012
09:00
V
20 °C 10 km+ - 200° 200° 3 kt METAR LFBF 250700Z AUTO 20003KT 160V250 CAVOK 20/15 Q1012
08:30
V
19 °C 10 km+ - 200° 200° 4 kt METAR LFBF 250630Z AUTO 20004KT CAVOK 19/15 Q1012
08:00
V
18 °C 10 km+ - Var Var 3 kt METAR LFBF 250600Z AUTO VRB03KT CAVOK 18/14 Q1012

24 de junio de 2024

Hora Código Tiempo Temp. Visibilidad Cielo nuboso Viento METAR/SPECI
21:00
V
25 °C 10 km+ - 300° 300° 4 kt METAR LFBF 241900Z AUTO 30004KT CAVOK 25/15 Q1013
20:30
V
26 °C 10 km+ - 320° 320° 5 kt METAR LFBF 241830Z AUTO 32005KT CAVOK 26/15 Q1013
20:00
V
25 °C 10 km+ - 330° 330° 5 kt METAR LFBF 241800Z AUTO 33005KT CAVOK 25/15 Q1013
19:30
V
25 °C 10 km+ - 340° 340° 6 kt METAR LFBF 241730Z AUTO 34006KT CAVOK 25/15 Q1013
19:00
V
26 °C 10 km+ - 010° 010° 4 kt METAR LFBF 241700Z AUTO 01004KT 320V060 CAVOK 26/14 Q1013
18:30
V
26 °C 10 km+ - 030° 030° 4 kt METAR LFBF 241630Z AUTO 03004KT 360V080 CAVOK 26/14 Q1013
18:00
V
27 °C 10 km+ 5.800 ft 300° 300° 5 kt METAR LFBF 241600Z AUTO 30005KT 210V350 9999 FEW001 BKN058 27/13 Q1013
17:30
V
25 °C 10 km+ - 350° 350° 6 kt METAR LFBF 241530Z AUTO 35006KT CAVOK 25/13 Q1013
17:00
V
27 °C 10 km+ - 340° 340° 6 kt METAR LFBF 241500Z AUTO 34006KT 250V020 CAVOK 27/13 Q1013
16:30
V
26 °C 10 km+ - 330° 330° 6 kt METAR LFBF 241430Z AUTO 33006KT 260V020 CAVOK 26/13 Q1014
16:00
V
27 °C 10 km+ - Var Var 5 kt METAR LFBF 241400Z AUTO VRB05KT CAVOK 27/14 Q1014
15:30
V
25 °C 10 km+ - 360° 360° 7 kt METAR LFBF 241330Z AUTO 36007KT 330V040 CAVOK 25/14 Q1014
15:00
V
25 °C 10 km+ - 330° 330° 5 kt METAR LFBF 241300Z AUTO 33005KT 290V010 CAVOK 25/14 Q1014
14:30
V
25 °C 10 km+ - Var Var 5 kt METAR LFBF 241230Z AUTO VRB05KT CAVOK 25/13 Q1014
14:00
V
25 °C 10 km+ - 340° 340° 5 kt METAR LFBF 241200Z AUTO 34005KT 290V360 CAVOK 25/13 Q1015
13:30
V
25 °C 10 km+ - 310° 310° 8 kt METAR LFBF 241130Z AUTO 31008KT 290V360 CAVOK 25/13 Q1015
13:00
V
25 °C 10 km+ - Var Var 5 kt METAR LFBF 241100Z AUTO VRB05KT CAVOK 25/13 Q1015
12:30
V
25 °C 10 km+ - 300° 300° 8 kt METAR LFBF 241030Z AUTO 30008KT 270V340 CAVOK 25/12 Q1016
12:00
V
24 °C 10 km+ - 310° 310° 6 kt METAR LFBF 241000Z AUTO 31006KT 280V350 CAVOK 24/13 Q1016
11:30
V
23 °C 10 km+ - 270° 270° 6 kt METAR LFBF 240930Z AUTO 27006KT 220V320 CAVOK 23/13 Q1016
11:00
V
22 °C 10 km+ - 300° 300° 7 kt METAR LFBF 240900Z AUTO 30007KT CAVOK 22/13 Q1016
10:30
V
22 °C 10 km+ - 280° 280° 6 kt METAR LFBF 240830Z AUTO 28006KT 220V330 CAVOK 22/14 Q1016
10:00
V
21 °C 10 km+ - 270° 270° 7 kt METAR LFBF 240800Z AUTO 27007KT 230V300 CAVOK 21/14 Q1016
09:30
V
20 °C 10 km+ - 270° 270° 6 kt METAR LFBF 240730Z AUTO 27006KT 250V310 CAVOK 20/14 Q1017
09:00
V
19 °C 10 km+ - 270° 270° 4 kt METAR LFBF 240700Z AUTO 27004KT 230V310 CAVOK 19/15 Q1017
08:30
V
17 °C 10 km+ - 270° 270° 3 kt METAR LFBF 240630Z AUTO 27003KT 230V300 CAVOK 17/14 Q1017
08:00
V
16 °C 10 km+ - 250° 250° 3 kt METAR LFBF 240600Z AUTO 25003KT 210V280 CAVOK 16/14 Q1017
07:30
I
15 °C 3,7 km - 250° 250° 3 kt METAR LFBF 240530Z AUTO 25003KT 200V280 9999 3700 NSC 15/13 Q1017
07:00
V
14 °C 10 km+ - 230° 230° 5 kt METAR LFBF 240500Z AUTO 23005KT CAVOK 14/13 Q1017
06:30
V
14 °C 10 km+ - 220° 220° 4 kt METAR LFBF 240430Z AUTO 22004KT CAVOK 14/12 Q1017
06:00
V
14 °C 10 km+ - 230° 230° 3 kt METAR LFBF 240400Z AUTO 23003KT CAVOK 14/12 Q1017

23 de junio de 2024

Hora Código Tiempo Temp. Visibilidad Cielo nuboso Viento METAR/SPECI
21:00
V
21 °C 10 km+ - 310° 310° 6 kt METAR LFBF 231900Z AUTO 31006KT CAVOK 21/13 Q1019
20:30
V
22 °C 10 km+ - 310° 310° 7 kt METAR LFBF 231830Z AUTO 31007KT CAVOK 22/12 Q1018
20:00
V
23 °C 10 km+ - 320° 320° 9 kt METAR LFBF 231800Z AUTO 32009KT CAVOK 23/12 Q1018
19:30
V
23 °C 10 km+ - 320° 320° 10 kt METAR LFBF 231730Z AUTO 32010KT 9999 FEW045 23/12 Q1018
19:00
V
23 °C 10 km+ - 310° 310° 10 kt METAR LFBF 231700Z AUTO 31010KT 9999 FEW046 23/12 Q1018
18:30
V
23 °C 10 km+ - 320° 320° 9 kt METAR LFBF 231630Z AUTO 32009KT 280V350 CAVOK 23/12 Q1018
18:00
V
24 °C 10 km+ - 330° 330° 9 kt METAR LFBF 231600Z AUTO 33009KT 9999 FEW046 SCT066 24/12 Q1018
17:30
V
24 °C 10 km+ 6.200 ft 320° 320° 10 kt METAR LFBF 231530Z AUTO 32010KT 250V350 9999 FEW047 BKN062 24/12 Q1019
17:00
V
23 °C 10 km+ 6.600 ft 330° 330° 10 kt METAR LFBF 231500Z AUTO 33010KT 290V360 9999 FEW046 BKN066 23/13 Q1019
16:30
V
23 °C 10 km+ - 320° 320° 11 kt METAR LFBF 231430Z AUTO 32011KT 290V010 CAVOK 23/13 Q1019
16:00
V
22 °C 10 km+ 3.900 ft 340° 340° 9 kt METAR LFBF 231400Z AUTO 34009KT 290V010 9999 BKN039 OVC060 22/13 Q1019
15:30
V
22 °C 10 km+ 3.700 ft 310° 310° 10 kt METAR LFBF 231330Z AUTO 31010KT 280V340 9999 BKN037 BKN062 22/13 Q1019
15:00
V
22 °C 10 km+ 5.800 ft 320° 320° 9 kt METAR LFBF 231300Z AUTO 32009KT 280V350 9999 FEW034 SCT047 BKN058 22/13 Q1019
14:30
V
22 °C 10 km+ 5.400 ft 310° 310° 9 kt METAR LFBF 231230Z AUTO 31009KT 270V360 9999 SCT032 SCT042 BKN054 22/13 Q1019
14:00
V
21 °C 10 km+ 6.200 ft 310° 310° 10 kt METAR LFBF 231200Z AUTO 31010KT 290V350 9999 FEW034 BKN062 21/14 Q1020
13:30
V
21 °C 10 km+ 4.100 ft 310° 310° 7 kt METAR LFBF 231130Z AUTO 31007KT 250V360 9999 SCT032 BKN041 BKN060 21/13 Q1020
13:00
V
21 °C 10 km+ 3.600 ft 300° 300° 6 kt METAR LFBF 231100Z AUTO 30006KT 240V340 9999 SCT029 BKN036 BKN047 21/13 Q1020
12:30
M
20 °C 10 km+ 2.600 ft 300° 300° 7 kt METAR LFBF 231030Z AUTO 30007KT 260V340 9999 BKN026 BKN049 OVC060 20/13 Q1020
12:00
V
20 °C 10 km+ 4.400 ft 300° 300° 8 kt METAR LFBF 231000Z AUTO 30008KT 240V340 9999 FEW018 BKN044 BKN058 20/14 Q1021
11:30
M
19 °C 10 km+ 1.900 ft 300° 300° 6 kt METAR LFBF 230930Z AUTO 30006KT 240V010 9999 BKN019 BKN033 19/14 Q1021
11:00
M
18 °C 10 km+ 1.600 ft 290° 290° 8 kt METAR LFBF 230900Z AUTO 29008KT 220V320 9999 BKN016 BKN022 OVC058 18/14 Q1021
10:30
V
17 °C 10 km+ 4.600 ft 280° 280° 6 kt METAR LFBF 230830Z AUTO 28006KT 250V320 9999 SCT011 SCT030 BKN046 17/15 Q1021
10:00
I
16 °C 3,6 km 2.000 ft 290° 290° 7 kt METAR LFBF 230800Z AUTO 29007KT 260V320 9999 3600 -RA SCT014 BKN020 BKN027 16/14 Q1021
09:30
M
16 °C 10 km+ 1.300 ft 300° 300° 4 kt METAR LFBF 230730Z AUTO 30004KT 250V330 9999 BKN013 OVC037 16/14 Q1021
09:00
M
16 °C 10 km+ 1.200 ft 300° 300° 7 kt METAR LFBF 230700Z AUTO 30007KT 9999 BKN012 BKN020 OVC033 16/14 Q1021
08:30
V
16 °C 10 km+ 4.200 ft 290° 290° 7 kt METAR LFBF 230630Z AUTO 29007KT 260V320 9999 SCT007 BKN042 BKN048 16/13 Q1021
08:00
V
15 °C 10 km+ 4.100 ft 290° 290° 5 kt METAR LFBF 230600Z AUTO 29005KT 250V310 9999 FEW033 OVC041 15/14 Q1021
Cambiar esta información